Time;durP1;ratioP1;P1;durP2;ratioP2;P2;SDS_P1;SDS_P2;PMS_P1;PMS_P2;Temp;Humidity;BMP_temperature;BMP_pressure;BME280_temperature;BME280_humidity;BME280_pressure;Samples;Min_cycle;Max_cycle;Signal;HPM_P1;HPM_P2
2023/04/20 00:01:55;;;;;;;2.00;0.40;;;;;;;6.57;41.57;102499.34;4991882;28;20127;-73
2023/04/20 00:04:21;;;;;;;2.05;0.65;;;;;;;6.57;41.53;102489.81;5006941;28;20041;-72
2023/04/20 00:06:46;;;;;;;4.32;0.50;;;;;;;6.48;41.48;102484.59;5006273;28;20029;-71
2023/04/20 00:09:13;;;;;;;4.03;0.50;;;;;;;6.20;42.21;102483.63;4991251;28;20111;-71
2023/04/20 00:11:38;;;;;;;3.13;0.57;;;;;;;6.38;42.61;102486.31;5001021;28;20061;-70
2023/04/20 00:14:04;;;;;;;6.50;1.63;;;;;;;6.27;42.92;102482.78;5003828;28;20603;-73
2023/04/20 00:16:29;;;;;;;4.15;0.40;;;;;;;5.95;43.78;102473.13;4997231;28;20040;-72
2023/04/20 00:18:55;;;;;;;3.05;0.50;;;;;;;5.84;44.38;102469.63;5010017;28;20041;-72
2023/04/20 00:21:22;;;;;;;4.85;0.80;;;;;;;5.94;44.28;102466.19;5022817;28;20556;-69
2023/04/20 00:23:49;;;;;;;5.45;0.63;;;;;;;5.92;44.88;102457.53;5005917;28;20037;-64
2023/04/20 00:26:15;;;;;;;2.88;0.47;;;;;;;5.91;44.44;102454.94;5007089;28;20091;-66
2023/04/20 00:28:42;;;;;;;1.73;0.65;;;;;;;5.72;44.71;102454.81;5007360;28;20041;-68
2023/04/20 00:31:08;;;;;;;2.47;0.95;;;;;;;5.74;45.01;102454.84;5007248;28;20060;-68
2023/04/20 00:33:33;;;;;;;2.80;0.40;;;;;;;5.61;45.44;102447.00;5000057;28;20118;-70
2023/04/20 00:35:59;;;;;;;3.70;0.47;;;;;;;5.55;45.34;102451.28;5008405;28;20040;-70
2023/04/20 00:38:25;;;;;;;2.65;0.55;;;;;;;5.53;45.42;102443.47;5001798;28;20045;-68
2023/04/20 00:40:52;;;;;;;6.40;0.80;;;;;;;5.66;45.09;102437.50;5006017;28;20025;-69
2023/04/20 00:43:19;;;;;;;0.93;0.50;;;;;;;5.85;44.75;102430.66;5002868;28;20680;-68
2023/04/20 00:45:45;;;;;;;2.45;0.47;;;;;;;5.72;45.18;102422.81;5008993;28;20568;-70
2023/04/20 00:48:12;;;;;;;6.60;0.55;;;;;;;5.75;44.86;102418.53;5006305;28;20038;-71
2023/04/20 00:50:39;;;;;;;4.25;0.60;;;;;;;5.82;44.86;102417.69;5008320;28;20730;-71
2023/04/20 00:53:09;;;;;;;8.85;0.60;;;;;;;5.80;44.80;102421.16;5009805;28;20469;-70
2023/04/20 00:55:36;;;;;;;2.22;0.60;;;;;;;5.91;44.22;102410.81;5016659;28;20579;-69
2023/04/20 00:58:02;;;;;;;4.22;0.65;;;;;;;5.70;45.39;102409.84;5029116;28;20314;-71
2023/04/20 01:00:32;;;;;;;4.15;1.25;;;;;;;5.74;45.09;102406.41;5025253;28;20494;-69
2023/04/20 01:02:57;;;;;;;3.85;0.60;;;;;;;5.84;45.00;102399.56;5028002;28;20220;-68
2023/04/20 01:05:23;;;;;;;2.72;0.70;;;;;;;5.93;44.89;102391.78;5025688;28;20040;-69
2023/04/20 01:07:48;;;;;;;6.38;0.73;;;;;;;5.61;45.26;102394.22;5010913;28;20547;-68
2023/04/20 01:10:14;;;;;;;5.07;0.57;;;;;;;5.77;44.92;102389.97;5022604;28;21670;-67
2023/04/20 01:12:41;;;;;;;3.20;0.65;;;;;;;5.78;44.13;102386.53;5027215;28;20768;-68
2023/04/20 01:15:07;;;;;;;2.55;1.15;;;;;;;5.74;43.54;102382.19;5026060;28;20116;-71
2023/04/20 01:17:35;;;;;;;4.25;0.80;;;;;;;5.60;42.80;102377.81;5014979;28;20512;-67
2023/04/20 01:20:01;;;;;;;2.80;0.57;;;;;;;5.70;41.80;102375.25;5030549;28;20101;-69
2023/04/20 01:22:27;;;;;;;7.32;1.42;;;;;;;5.61;40.90;102374.38;5029615;28;20547;-71
2023/04/20 01:24:52;;;;;;;6.28;1.70;;;;;;;5.86;40.49;102367.56;5016460;28;20593;-69
2023/04/20 01:27:19;;;;;;;6.55;1.63;;;;;;;5.82;40.03;102367.53;4999480;28;20055;-68
2023/04/20 01:29:45;;;;;;;2.22;0.90;;;;;;;5.88;40.14;102364.94;5011406;28;20502;-68
2023/04/20 01:32:10;;;;;;;5.10;1.25;;;;;;;5.96;39.90;102355.47;5012465;28;20703;-66
2023/04/20 01:34:36;;;;;;;3.85;1.10;;;;;;;5.87;39.88;102360.63;5015111;28;20089;-65
2023/04/20 01:37:06;;;;;;;2.40;1.35;;;;;;;5.85;39.61;102351.97;5047951;28;20750;-68
2023/04/20 01:39:35;;;;;;;2.70;1.00;;;;;;;5.90;39.81;102347.66;5028223;28;20048;-67
2023/04/20 01:42:00;;;;;;;3.25;0.93;;;;;;;5.86;39.71;102340.75;5029070;28;20529;-68
2023/04/20 01:44:26;;;;;;;1.65;1.00;;;;;;;6.05;39.52;102334.72;5020325;28;20065;-66
2023/04/20 01:46:52;;;;;;;3.17;1.48;;;;;;;6.01;39.47;102335.56;5028680;28;20521;-68
2023/04/20 01:49:17;;;;;;;1.90;0.40;;;;;;;6.02;38.81;102329.53;5002566;28;20041;-69
2023/04/20 01:51:43;;;;;;;2.10;0.73;;;;;;;6.03;39.27;102325.19;5010718;28;20061;-70
2023/04/20 01:54:09;;;;;;;3.92;1.00;;;;;;;6.09;38.85;102326.06;5010892;28;20054;-69
2023/04/20 01:56:34;;;;;;;5.30;1.10;;;;;;;6.19;38.67;102329.53;5007105;28;20037;-68
2023/04/20 01:59:00;;;;;;;6.07;0.98;;;;;;;6.21;39.11;102324.38;5006612;28;20069;-69
2023/04/20 02:01:25;;;;;;;2.25;0.40;;;;;;;6.38;38.41;102322.69;5007007;28;20041;-69
2023/04/20 02:03:51;;;;;;;3.63;0.60;;;;;;;6.13;38.47;102328.66;5008587;28;20053;-69
2023/04/20 02:06:19;;;;;;;16.02;0.82;;;;;;;6.06;38.28;102326.09;5008089;28;20046;-68
2023/04/20 02:08:45;;;;;;;1.30;0.63;;;;;;;6.22;37.93;102319.19;5009600;28;20049;-67
2023/04/20 02:11:10;;;;;;;2.78;0.60;;;;;;;6.08;37.48;102308.78;5020124;28;20537;-74
2023/04/20 02:13:36;;;;;;;2.55;0.82;;;;;;;5.98;37.47;102314.81;5017168;28;20041;-69
2023/04/20 02:16:02;;;;;;;5.85;0.55;;;;;;;6.26;36.55;102307.94;5021864;28;20183;-70
2023/04/20 02:18:29;;;;;;;4.18;0.30;;;;;;;6.27;35.95;102308.81;5007049;28;20044;-70
2023/04/20 02:20:55;;;;;;;4.00;0.50;;;;;;;5.99;35.60;102297.50;5010336;28;20281;-75
2023/04/20 02:23:20;;;;;;;2.42;0.40;;;;;;;6.20;35.28;102292.34;5008493;28;20094;-68
2023/04/20 02:25:46;;;;;;;3.50;0.55;;;;;;;6.20;35.84;102286.31;5010442;28;20029;-69
2023/04/20 02:28:11;;;;;;;1.77;0.60;;;;;;;5.97;36.95;102286.25;5010386;28;20418;-66
2023/04/20 02:30:37;;;;;;;3.08;0.45;;;;;;;6.03;37.54;102289.72;5022447;28;21348;-69
2023/04/20 02:33:02;;;;;;;2.45;0.47;;;;;;;6.03;38.34;102289.72;5013003;28;20140;-68
2023/04/20 02:35:28;;;;;;;2.50;0.77;;;;;;;5.87;38.94;102287.97;5006697;28;20056;-68
2023/04/20 02:37:54;;;;;;;2.45;0.57;;;;;;;5.74;39.03;102291.38;5006723;28;20026;-67
2023/04/20 02:40:19;;;;;;;2.28;0.80;;;;;;;6.21;38.63;102293.22;5016050;28;20083;-69
2023/04/20 02:42:45;;;;;;;2.15;0.63;;;;;;;6.00;38.31;102294.91;5013345;28;20036;-71
2023/04/20 02:45:11;;;;;;;4.82;0.73;;;;;;;5.89;38.89;102299.22;5014451;28;20112;-71
2023/04/20 02:47:37;;;;;;;4.75;0.93;;;;;;;6.17;37.75;102297.56;4991152;28;20031;-68
2023/04/20 02:50:03;;;;;;;2.00;0.70;;;;;;;5.96;37.63;102303.56;4994344;28;20118;-69
2023/04/20 02:52:33;;;;;;;4.40;0.68;;;;;;;5.98;36.54;102286.25;4991796;28;20041;-67
2023/04/20 02:55:00;;;;;;;5.30;0.60;;;;;;;5.92;36.23;102285.38;4996904;28;20045;-67
2023/04/20 02:57:26;;;;;;;2.78;0.50;;;;;;;6.04;35.86;102286.28;5007273;28;20033;-69
2023/04/20 02:59:54;;;;;;;3.40;0.63;;;;;;;5.89;35.79;102291.44;4993365;28;20073;-69
2023/04/20 03:02:24;;;;;;;1.05;0.30;;;;;;;6.07;35.75;102288.88;5009539;28;20095;-68
2023/04/20 03:04:51;;;;;;;3.45;0.57;;;;;;;5.97;35.75;102286.25;5011118;28;20037;-69
2023/04/20 03:07:19;;;;;;;1.00;0.38;;;;;;;5.78;35.88;102285.34;5009784;28;20041;-67
2023/04/20 03:09:46;;;;;;;2.13;0.52;;;;;;;5.82;35.79;102279.31;5004742;28;20034;-69
2023/04/20 03:12:21;;;;;;;4.05;0.60;;;;;;;5.73;35.80;102285.34;4993029;28;20068;-67
2023/04/20 03:14:56;;;;;;;2.47;0.57;;;;;;;5.88;35.94;102284.50;5007746;28;20395;-67
2023/04/20 03:17:31;;;;;;;6.70;1.45;;;;;;;5.90;35.93;102290.56;4999154;28;20029;-65
2023/04/20 03:19:56;;;;;;;0.85;0.30;;;;;;;5.62;36.29;102287.91;5006234;28;20041;-67
2023/04/20 03:22:22;;;;;;;2.45;0.47;;;;;;;5.76;35.62;102280.16;5017883;28;20327;-67
2023/04/20 03:24:52;;;;;;;5.35;1.10;;;;;;;5.85;35.71;102271.53;5005813;28;20113;-69
2023/04/20 03:27:40;;;;;;;2.22;0.43;;;;;;;6.07;35.60;102264.66;5006773;28;20462;-69
2023/04/20 03:30:10;;;;;;;1.42;0.38;;;;;;;5.71;36.70;102268.03;5006886;28;20181;-70
2023/04/20 03:32:37;;;;;;;4.15;0.68;;;;;;;5.64;36.97;102268.03;4996826;28;20061;-66
2023/04/20 03:35:04;;;;;;;2.53;1.13;;;;;;;5.77;36.86;102270.63;4991664;28;20652;-66
2023/04/20 03:37:30;;;;;;;6.35;0.40;;;;;;;5.70;37.46;102263.69;5007468;28;20049;-67
2023/04/20 03:39:58;;;;;;;3.80;0.45;;;;;;;5.62;37.26;102266.28;5008125;28;20682;-67
2023/04/20 03:42:23;;;;;;;2.75;0.52;;;;;;;5.75;36.78;102267.16;5008192;28;20045;-68
2023/04/20 03:44:49;;;;;;;3.75;0.52;;;;;;;5.67;36.73;102265.41;5006794;28;20061;-68
2023/04/20 03:47:15;;;;;;;9.15;1.15;;;;;;;5.52;36.63;102259.31;5007970;28;20041;-68
2023/04/20 03:49:41;;;;;;;1.23;0.38;;;;;;;5.74;36.42;102263.72;5011666;28;20127;-71
2023/04/20 03:52:06;;;;;;;4.20;0.80;;;;;;;5.74;36.44;102250.75;5029868;28;20102;-70
2023/04/20 03:54:32;;;;;;;0.68;0.20;;;;;;;5.59;37.38;102251.59;5008908;28;20038;-68
2023/04/20 03:56:58;;;;;;;2.50;0.45;;;;;;;5.63;36.95;102236.88;5027093;28;21108;-69
2023/04/20 03:59:25;;;;;;;3.05;0.43;;;;;;;5.65;37.14;102230.81;5025438;28;20444;-68
2023/04/20 04:01:51;;;;;;;5.88;1.30;;;;;;;5.36;37.66;102224.69;5027526;28;20037;-71
2023/04/20 04:04:17;;;;;;;1.10;0.32;;;;;;;5.24;38.19;102226.38;5027781;28;20140;-72
2023/04/20 04:06:42;;;;;;;4.00;0.50;;;;;;;5.35;37.77;102213.47;5025970;28;20548;-72
2023/04/20 04:09:08;;;;;;;2.40;0.43;;;;;;;5.18;37.47;102210.81;5029297;28;20044;-73
2023/04/20 04:11:33;;;;;;;3.03;0.38;;;;;;;5.49;37.39;102213.50;5006591;28;22068;-74
2023/04/20 04:14:03;;;;;;;1.77;0.55;;;;;;;5.25;37.94;102214.28;5025869;28;20041;-74
2023/04/20 04:16:30;;;;;;;1.95;0.60;;;;;;;5.48;37.60;102211.78;5028492;28;20048;-73
2023/04/20 04:18:56;;;;;;;1.65;0.45;;;;;;;5.53;38.06;102217.84;5022199;28;20426;-71
2023/04/20 04:21:21;;;;;;;3.20;0.50;;;;;;;4.84;38.56;102207.16;5028273;28;20040;-70
2023/04/20 04:23:53;;;;;;;;;;;;;;;4.96;38.45;102212.44;5024645;28;20648;-68
2023/04/20 04:26:35;;;;;;;7.45;0.65;;;;;;;5.18;38.62;102216.00;5010509;28;19998;-75
2023/04/20 04:29:03;;;;;;;4.20;0.50;;;;;;;5.07;38.97;102220.25;5028898;28;20048;-76
2023/04/20 04:31:31;;;;;;;2.83;1.40;;;;;;;5.22;38.91;102222.91;5013433;28;20600;-74
2023/04/20 04:34:02;;;;;;;7.63;0.63;;;;;;;5.16;39.02;102227.22;5027367;28;20448;-67
2023/04/20 04:36:37;;;;;;;1.90;0.50;;;;;;;5.12;39.16;102221.13;5010578;28;20155;-68
2023/04/20 04:39:05;;;;;;;1.38;0.57;;;;;;;5.21;40.17;102221.22;5010357;28;20057;-77
2023/04/20 04:41:30;;;;;;;3.17;0.63;;;;;;;4.84;41.72;102220.13;5026240;28;20604;-73
2023/04/20 04:44:07;;;;;;;2.95;0.55;;;;;;;4.74;42.26;102216.59;5027170;28;20478;-74
2023/04/20 04:46:35;;;;;;;2.90;0.75;;;;;;;4.71;42.67;102226.09;5017410;28;20032;-72
2023/04/20 04:49:01;;;;;;;2.38;0.50;;;;;;;4.58;42.35;102220.81;5024122;28;20541;-74
2023/04/20 04:51:27;;;;;;;2.45;0.68;;;;;;;4.81;41.57;102220.97;5026741;28;20044;-72
2023/04/20 04:53:52;;;;;;;3.80;0.98;;;;;;;4.72;41.22;102220.94;5017374;28;20049;-71
2023/04/20 04:56:19;;;;;;;1.60;0.40;;;;;;;4.98;41.25;102220.22;5033378;28;20057;-77
2023/04/20 04:58:45;;;;;;;1.80;0.38;;;;;;;5.00;41.28;102223.69;5027206;28;20690;-73
2023/04/20 05:01:12;;;;;;;2.28;0.40;;;;;;;4.79;40.96;102220.09;5028383;28;20517;-76
2023/04/20 05:03:41;;;;;;;3.42;0.70;;;;;;;5.12;40.21;102223.72;5025769;28;20329;-77
2023/04/20 05:06:06;;;;;;;1.73;0.40;;;;;;;5.17;41.16;102223.78;5033436;28;20106;-77
2023/04/20 05:08:33;;;;;;;2.83;0.60;;;;;;;4.90;40.45;102227.06;5028610;28;20041;-73
2023/04/20 05:10:59;;;;;;;1.80;0.20;;;;;;;5.07;40.33;102217.66;5032307;28;20728;-73
2023/04/20 05:13:25;;;;;;;3.17;0.40;;;;;;;5.00;40.24;102226.28;5011535;28;20127;-71
2023/04/20 05:15:50;;;;;;;2.35;0.38;;;;;;;5.11;40.01;102226.34;5028667;28;20155;-69
2023/04/20 05:18:16;;;;;;;1.63;0.28;;;;;;;4.95;39.98;102220.22;5030292;28;20155;-73
2023/04/20 05:20:42;;;;;;;1.67;0.43;;;;;;;5.02;39.25;102216.78;5027186;28;20029;-72
2023/04/20 05:23:07;;;;;;;2.72;0.65;;;;;;;5.23;39.29;102227.25;5014302;28;20037;-70
2023/04/20 05:25:33;;;;;;;5.60;0.50;;;;;;;5.18;39.15;102228.09;5028809;28;20064;-70
2023/04/20 05:27:59;;;;;;;4.10;0.45;;;;;;;5.10;39.14;102230.66;5032392;28;20089;-73
2023/04/20 05:30:26;;;;;;;1.83;0.80;;;;;;;4.91;39.47;102234.00;5029677;28;20040;-72
2023/04/20 05:32:52;;;;;;;2.30;0.60;;;;;;;5.13;39.34;102235.84;5027718;28;21794;-70
2023/04/20 05:35:18;;;;;;;1.48;0.35;;;;;;;5.07;38.93;102237.53;5028629;28;20139;-72
2023/04/20 05:37:43;;;;;;;1.23;0.25;;;;;;;5.17;38.50;102235.00;5027340;28;20032;-72
2023/04/20 05:40:10;;;;;;;1.63;0.60;;;;;;;5.02;38.90;102232.34;5032258;28;20053;-75
2023/04/20 05:42:35;;;;;;;2.15;0.60;;;;;;;4.73;39.66;102233.00;5030013;28;20111;-77
2023/04/20 05:45:01;;;;;;;1.25;0.35;;;;;;;4.97;39.28;102228.88;5021589;28;20131;-76
2023/04/20 05:47:26;;;;;;;0.98;0.45;;;;;;;5.03;39.63;102234.06;5032510;28;20039;-75
2023/04/20 05:49:52;;;;;;;2.17;0.32;;;;;;;5.01;39.62;102240.94;5027148;28;21870;-76
2023/04/20 05:52:18;;;;;;;3.20;0.55;;;;;;;5.03;39.81;102228.88;5033083;28;20106;-75
2023/04/20 05:54:44;;;;;;;3.22;0.45;;;;;;;5.06;40.24;102231.50;5024087;28;20053;-75
2023/04/20 05:57:10;;;;;;;3.25;0.60;;;;;;;5.26;40.02;102231.59;5013144;28;20056;-76
2023/04/20 05:59:36;;;;;;;2.50;0.50;;;;;;;5.19;41.25;102225.50;5021469;28;20044;-76
2023/04/20 06:02:01;;;;;;;2.80;0.63;;;;;;;4.40;43.86;102231.91;5047641;28;20252;-73
2023/04/20 06:04:29;;;;;;;5.25;0.57;;;;;;;4.43;44.17;102237.13;5029614;28;20396;-72
2023/04/20 06:06:55;;;;;;;5.78;0.50;;;;;;;4.47;44.22;102237.13;5026657;28;20033;-71
2023/04/20 06:09:21;;;;;;;1.02;0.52;;;;;;;4.33;45.07;102234.47;5011736;28;20509;-70
2023/04/20 06:11:46;;;;;;;3.08;0.82;;;;;;;4.16;45.12;102231.72;5024900;28;20036;-72
2023/04/20 06:14:13;;;;;;;3.13;0.68;;;;;;;4.22;45.33;102231.78;5031203;28;20124;-78
2023/04/20 06:16:39;;;;;;;4.43;0.63;;;;;;;4.44;44.88;102243.16;5030877;28;20488;-79
2023/04/20 06:19:05;;;;;;;2.17;0.73;;;;;;;4.43;44.81;102241.41;5028755;28;21804;-68
2023/04/20 06:21:33;;;;;;;6.63;0.77;;;;;;;4.46;45.69;102240.59;5030595;28;20083;-70
2023/04/20 06:23:58;;;;;;;2.40;0.85;;;;;;;4.30;44.45;102244.78;5022909;28;20048;-72
2023/04/20 06:26:24;;;;;;;3.78;0.50;;;;;;;4.33;43.75;102250.84;5030153;28;20045;-71
2023/04/20 06:28:51;;;;;;;4.20;1.10;;;;;;;4.99;43.16;102238.38;5023768;28;20449;-71
2023/04/20 06:31:18;;;;;;;3.42;1.00;;;;;;;5.03;42.86;102240.13;5029096;28;20033;-69
2023/04/20 06:33:44;;;;;;;4.35;0.60;;;;;;;5.07;42.18;102247.91;5022315;28;20063;-71
2023/04/20 06:36:09;;;;;;;1.35;0.43;;;;;;;5.06;42.35;102244.47;5006553;28;20521;-73
2023/04/20 06:38:35;;;;;;;1.30;0.50;;;;;;;5.11;42.08;102250.53;5005954;28;20064;-71
2023/04/20 06:41:01;;;;;;;2.15;0.47;;;;;;;5.01;41.95;102253.91;5012234;28;20061;-73
2023/04/20 06:43:28;;;;;;;3.30;0.52;;;;;;;4.99;42.24;102247.88;5011927;28;20494;-74
2023/04/20 06:45:54;;;;;;;3.78;0.80;;;;;;;5.16;41.72;102246.22;5027372;28;20397;-71
2023/04/20 06:48:19;;;;;;;7.53;0.98;;;;;;;5.06;41.84;102241.88;5026157;28;20040;-67
2023/04/20 06:50:49;;;;;;;1.35;0.63;;;;;;;5.08;42.10;102247.94;5026421;28;20167;-67
2023/04/20 06:53:16;;;;;;;2.38;0.68;;;;;;;5.22;42.17;102238.47;5016528;28;20033;-73
2023/04/20 06:55:41;;;;;;;1.77;0.70;;;;;;;5.41;41.80;102241.13;5028578;28;20033;-72
2023/04/20 06:58:07;;;;;;;1.65;0.80;;;;;;;5.34;41.70;102245.44;5025812;28;20033;-67
2023/04/20 07:00:33;;;;;;;1.48;0.40;;;;;;;5.15;42.73;102247.09;5027163;28;20041;-71
2023/04/20 07:02:58;;;;;;;6.55;1.38;;;;;;;5.15;42.83;102249.69;5027284;28;20039;-72
2023/04/20 07:05:24;;;;;;;2.97;0.40;;;;;;;4.74;44.63;102245.09;5027682;28;20581;-71
2023/04/20 07:07:50;;;;;;;3.35;1.02;;;;;;;4.46;45.70;102249.22;5026093;28;20032;-67
2023/04/20 07:10:16;;;;;;;3.78;0.82;;;;;;;4.26;47.08;102243.88;5022773;28;20403;-67
2023/04/20 07:12:42;;;;;;;6.50;0.70;;;;;;;3.99;48.26;102247.97;5017702;28;20547;-69
2023/04/20 07:15:08;;;;;;;3.63;0.77;;;;;;;4.27;48.97;102244.75;5022566;28;20088;-72
2023/04/20 07:17:34;;;;;;;5.00;1.52;;;;;;;4.31;47.64;102243.94;5045851;28;20041;-68
2023/04/20 07:20:07;;;;;;;2.05;1.13;;;;;;;4.34;47.86;102247.41;5035615;28;20041;-68
2023/04/20 07:22:37;;;;;;;2.45;0.82;;;;;;;4.48;48.14;102244.94;5027105;28;20098;-67
2023/04/20 07:25:04;;;;;;;4.72;0.65;;;;;;;4.53;48.32;102258.78;5032082;28;20518;-69
2023/04/20 07:27:34;;;;;;;2.08;0.70;;;;;;;4.29;48.13;102249.06;5026416;28;20090;-68
2023/04/20 07:29:59;;;;;;;2.03;1.15;;;;;;;4.19;48.73;102260.22;5027422;28;20593;-67
2023/04/20 07:32:25;;;;;;;3.50;1.17;;;;;;;4.29;48.83;102254.25;5026980;28;20977;-68
2023/04/20 07:34:50;;;;;;;4.50;1.65;;;;;;;4.29;49.06;102254.25;5022448;28;20037;-67
2023/04/20 07:37:16;;;;;;;2.67;1.05;;;;;;;4.50;48.53;102258.75;5029038;28;20039;-67
2023/04/20 07:39:41;;;;;;;6.93;1.70;;;;;;;4.36;48.78;102256.06;5026071;28;20037;-69
2023/04/20 07:42:07;;;;;;;4.13;1.63;;;;;;;4.21;48.87;102250.75;5026613;28;20350;-68
2023/04/20 07:44:32;;;;;;;3.50;1.30;;;;;;;4.54;48.56;102249.28;5027308;28;20041;-69
2023/04/20 07:46:57;;;;;;;4.85;1.33;;;;;;;4.47;48.73;102247.50;5021351;28;20498;-69
2023/04/20 07:49:24;;;;;;;4.22;1.23;;;;;;;4.64;48.66;102253.66;5023392;28;20044;-69
2023/04/20 07:51:50;;;;;;;2.88;1.30;;;;;;;4.80;48.78;102254.63;5024565;28;20064;-69
2023/04/20 07:54:16;;;;;;;3.80;1.23;;;;;;;4.81;48.93;102244.28;5007867;28;20597;-68
2023/04/20 07:56:44;;;;;;;7.13;1.58;;;;;;;4.79;48.66;102246.00;5018490;28;20036;-69
2023/04/20 07:59:10;;;;;;;3.78;1.55;;;;;;;4.77;48.58;102250.31;5025093;28;20049;-70
2023/04/20 08:01:35;;;;;;;2.95;1.33;;;;;;;4.89;49.11;102251.28;5024873;28;20036;-69
2023/04/20 08:04:01;;;;;;;7.18;2.05;;;;;;;4.79;49.42;102253.78;5025026;28;20036;-68
2023/04/20 08:06:27;;;;;;;4.40;1.75;;;;;;;4.81;49.31;102259.84;5025063;28;20040;-69
2023/04/20 08:08:52;;;;;;;3.95;1.25;;;;;;;4.76;49.50;102250.28;5012090;28;20060;-67
2023/04/20 08:11:18;;;;;;;5.90;2.15;;;;;;;5.07;48.83;102255.69;5024673;28;20128;-68
2023/04/20 08:13:43;;;;;;;4.68;2.20;;;;;;;5.04;49.21;102246.19;5022051;28;20052;-67
2023/04/20 08:16:09;;;;;;;7.93;1.80;;;;;;;4.83;49.76;102252.94;5026423;28;20036;-68
2023/04/20 08:18:34;;;;;;;3.80;1.25;;;;;;;5.23;49.35;102253.19;5023276;28;20060;-68
2023/04/20 08:20:59;;;;;;;3.65;1.65;;;;;;;5.12;49.30;102238.41;5024249;28;20317;-68
2023/04/20 08:23:26;;;;;;;5.35;1.50;;;;;;;5.04;49.60;102247.03;5024056;28;20033;-69
2023/04/20 08:25:55;;;;;;;7.28;1.65;;;;;;;5.55;48.87;102255.03;5002412;28;20088;-68
2023/04/20 08:28:22;;;;;;;4.90;1.70;;;;;;;5.63;48.73;102253.31;5002242;28;20533;-68
2023/04/20 08:30:48;;;;;;;5.70;1.85;;;;;;;5.78;48.00;102251.63;5007420;28;20030;-68
2023/04/20 08:33:13;;;;;;;9.90;1.45;;;;;;;5.67;48.48;102257.63;5007077;28;20029;-68
2023/04/20 08:35:39;;;;;;;6.90;2.13;;;;;;;5.91;48.41;102253.38;5003474;28;20033;-68
2023/04/20 08:38:04;;;;;;;5.53;1.67;;;;;;;5.78;48.07;102251.63;5010248;28;20636;-68
2023/04/20 08:40:30;;;;;;;7.47;1.90;;;;;;;5.86;48.42;102244.72;5005851;28;20049;-69
2023/04/20 08:42:58;;;;;;;7.30;1.70;;;;;;;5.36;48.91;102242.84;5003209;28;20603;-68
2023/04/20 08:45:24;;;;;;;5.82;1.63;;;;;;;5.76;47.86;102249.03;5005448;28;20395;-67
2023/04/20 08:47:51;;;;;;;4.43;2.10;;;;;;;5.64;48.29;102254.19;5008550;28;20430;-69
2023/04/20 08:50:18;;;;;;;5.72;1.67;;;;;;;5.66;48.71;102262.84;5002121;28;20045;-68
2023/04/20 08:52:44;;;;;;;4.13;1.65;;;;;;;5.47;48.87;102256.72;4991816;28;20404;-67
2023/04/20 08:55:15;;;;;;;6.80;3.45;;;;;;;5.10;49.67;102266.94;4999280;28;20037;-69
2023/04/20 08:57:41;;;;;;;5.80;1.98;;;;;;;5.57;48.97;102268.88;5005119;28;20101;-69
2023/04/20 09:00:09;;;;;;;5.32;2.15;;;;;;;5.28;49.80;102265.28;5022182;28;20040;-69
2023/04/20 09:02:36;;;;;;;7.25;1.83;;;;;;;5.42;49.92;102274.00;5011556;28;20118;-68
2023/04/20 09:05:05;;;;;;;7.28;1.90;;;;;;;5.13;50.56;102266.09;5027104;28;20040;-68
2023/04/20 09:07:31;;;;;;;5.47;2.33;;;;;;;5.31;49.87;102270.50;5029462;28;20243;-68
2023/04/20 09:09:58;;;;;;;9.40;2.03;;;;;;;5.58;49.65;102270.59;5008649;28;20052;-68
2023/04/20 09:12:26;;;;;;;6.18;2.28;;;;;;;5.45;49.98;102281.78;5028828;28;20294;-69
2023/04/20 09:14:52;;;;;;;4.20;1.83;;;;;;;5.06;50.92;102275.56;5011180;28;20052;-69
2023/04/20 09:17:32;;;;;;;16.65;3.50;;;;;;;5.66;50.21;102279.28;5006676;28;20034;-68
2023/04/20 09:19:58;;;;;;;9.18;2.33;;;;;;;5.81;49.49;102277.56;5007750;28;20037;-68
2023/04/20 09:22:34;;;;;;;11.02;2.95;;;;;;;6.01;49.38;102275.88;5006840;28;20036;-67
2023/04/20 09:25:14;;;;;;;4.85;2.28;;;;;;;6.11;49.20;102281.09;5008294;28;20475;-68
2023/04/20 09:27:39;;;;;;;5.50;2.47;;;;;;;6.11;49.03;102278.50;5007193;28;20106;-68
2023/04/20 09:30:06;;;;;;;12.38;2.50;;;;;;;5.91;49.68;102289.72;5007978;28;20442;-68
2023/04/20 09:32:32;;;;;;;6.38;2.38;;;;;;;5.80;49.88;102283.63;5007748;28;20438;-68
2023/04/20 09:34:58;;;;;;;9.73;2.75;;;;;;;5.56;50.45;102285.28;4982562;28;20422;-68
2023/04/20 09:37:24;;;;;;;8.48;2.38;;;;;;;5.60;50.08;102279.25;4990648;28;20036;-69
2023/04/20 09:39:50;;;;;;;6.80;2.70;;;;;;;5.73;49.97;102295.72;5002445;28;20677;-68
2023/04/20 09:42:16;;;;;;;6.75;2.50;;;;;;;5.44;50.54;102298.22;4999469;28;20042;-67
2023/04/20 09:44:42;;;;;;;7.47;2.28;;;;;;;5.61;50.75;102296.56;5001123;28;20509;-67
2023/04/20 09:47:20;;;;;;;6.07;2.10;;;;;;;5.53;50.79;102281.81;5005557;28;20048;-68
2023/04/20 09:49:46;;;;;;;7.55;2.25;;;;;;;5.98;49.59;102278.47;4992431;28;20463;-68
2023/04/20 09:52:17;;;;;;;5.88;2.85;;;;;;;5.71;50.68;102283.63;5008438;28;20034;-67
2023/04/20 09:54:44;;;;;;;10.70;2.72;;;;;;;6.20;50.62;102291.50;4990758;28;20050;-68
2023/04/20 09:57:11;;;;;;;9.68;2.65;;;;;;;6.27;49.57;102285.44;4995663;28;20052;-68
2023/04/20 09:59:41;;;;;;;7.38;2.95;;;;;;;6.08;49.97;102292.31;4996219;28;20138;-68
2023/04/20 10:02:08;;;;;;;5.75;3.22;;;;;;;5.73;50.61;102292.25;4998413;28;20718;-68
2023/04/20 10:04:34;;;;;;;4.07;2.35;;;;;;;5.89;50.15;102291.44;5010678;28;20056;-66
2023/04/20 10:07:05;;;;;;;7.55;1.90;;;;;;;6.19;50.07;102285.41;5024522;28;20060;-70
2023/04/20 10:09:32;;;;;;;6.55;2.85;;;;;;;5.89;50.15;102265.47;5024698;28;20045;-67
2023/04/20 10:12:08;;;;;;;5.30;2.70;;;;;;;5.84;50.55;102243.88;5026712;28;20517;-68
2023/04/20 10:14:34;;;;;;;6.57;2.75;;;;;;;5.88;50.81;102268.94;5022877;28;20122;-68
2023/04/20 10:17:03;;;;;;;8.38;2.95;;;;;;;5.65;50.73;102306.06;5026646;28;20430;-68
2023/04/20 10:19:36;;;;;;;14.77;3.55;;;;;;;5.49;51.59;102301.69;5014167;28;20737;-68
2023/04/20 10:22:04;;;;;;;5.50;2.58;;;;;;;5.35;51.96;102282.63;5024803;28;20388;-67
2023/04/20 10:24:30;;;;;;;3.80;2.25;;;;;;;5.43;52.25;102301.66;5022514;28;20049;-68
2023/04/20 10:26:56;;;;;;;6.65;3.42;;;;;;;5.81;51.66;102291.41;5029806;28;20033;-68
2023/04/20 10:29:28;;;;;;;5.30;2.80;;;;;;;6.05;50.98;102295.78;5020931;28;20041;-68
2023/04/20 10:31:54;;;;;;;;;;;;;;;5.95;51.08;102291.47;5022033;28;20045;-68
2023/04/20 10:34:30;;;;;;;4.20;2.20;;;;;;;6.13;50.47;102284.53;5018436;28;20152;-67
2023/04/20 10:37:09;;;;;;;7.82;3.28;;;;;;;6.13;51.21;102284.53;5022127;28;20032;-68
2023/04/20 10:39:39;;;;;;;11.73;3.97;;;;;;;5.87;51.74;102272.41;5007458;28;20092;-66
2023/04/20 10:42:05;;;;;;;5.78;3.47;;;;;;;5.90;51.69;102279.31;5004128;28;20479;-68
2023/04/20 10:44:31;;;;;;;5.45;3.10;;;;;;;6.09;51.45;102283.69;5003796;28;20038;-69
2023/04/20 10:46:57;;;;;;;7.45;3.42;;;;;;;5.80;51.72;102271.50;5002274;28;20376;-68
2023/04/20 10:49:27;;;;;;;9.85;4.22;;;;;;;5.94;51.70;102255.09;5012472;28;20052;-68
2023/04/20 10:51:54;;;;;;;6.38;3.10;;;;;;;6.01;51.35;102273.28;5024839;28;20040;-68
2023/04/20 10:54:22;;;;;;;10.25;3.53;;;;;;;6.37;50.61;102263.81;5021688;28;20531;-70
2023/04/20 10:56:50;;;;;;;7.15;3.70;;;;;;;6.40;50.96;102243.06;5025757;28;20037;-67
2023/04/20 10:59:23;;;;;;;14.65;2.72;;;;;;;7.00;50.09;102244.66;5024653;28;20822;-67
2023/04/20 11:01:50;;;;;;;8.10;3.47;;;;;;;7.32;48.97;102237.59;5025433;28;20033;-68
2023/04/20 11:04:16;;;;;;;6.50;3.28;;;;;;;8.48;47.46;102248.13;5015471;28;20068;-68
2023/04/20 11:06:44;;;;;;;12.05;3.35;;;;;;;8.65;46.10;102247.09;5024062;28;20466;-68
2023/04/20 11:09:19;;;;;;;6.20;2.65;;;;;;;8.05;47.11;102261.50;5040546;28;20464;-67
2023/04/20 11:11:45;;;;;;;5.10;2.88;;;;;;;7.74;47.32;102256.50;5024666;28;20041;-68
2023/04/20 11:14:11;;;;;;;8.88;3.38;;;;;;;7.30;48.36;102262.75;5024292;28;20048;-68
2023/04/20 11:16:38;;;;;;;6.38;2.88;;;;;;;7.86;47.67;102254.69;5022329;28;20039;-67
2023/04/20 11:19:04;;;;;;;11.25;3.55;;;;;;;7.50;47.85;102254.84;5027114;28;20089;-67
2023/04/20 11:21:41;;;;;;;8.05;2.42;;;;;;;7.49;47.71;102249.69;5020749;28;20159;-69
2023/04/20 11:24:18;;;;;;;6.03;2.47;;;;;;;7.71;47.06;102246.13;5025523;28;20049;-67
2023/04/20 11:26:44;;;;;;;6.07;3.10;;;;;;;7.81;46.61;102241.72;5015901;28;20329;-69
2023/04/20 11:29:10;;;;;;;6.40;2.17;;;;;;;7.82;46.98;102239.97;5024614;28;20052;-68
2023/04/20 11:31:35;;;;;;;8.68;2.58;;;;;;;7.88;47.19;102242.53;5021966;28;20044;-68
2023/04/20 11:34:02;;;;;;;5.85;2.78;;;;;;;8.38;46.49;102233.44;5023030;28;20033;-68